createdAt,value
2023-04-28T00:02:02.656Z,100829.78
2023-04-28T00:04:29.706Z,100822.78
2023-04-28T00:06:56.661Z,100818.50
2023-04-28T00:09:23.358Z,100822.31
2023-04-28T00:11:50.032Z,100822.44
2023-04-28T00:14:17.037Z,100815.50
2023-04-28T00:16:44.084Z,100818.22
2023-04-28T00:19:11.010Z,100815.69
2023-04-28T00:21:37.654Z,100807.69
2023-04-28T00:24:04.481Z,100811.06
2023-04-28T00:26:31.101Z,100808.81
2023-04-28T00:28:57.784Z,100811.94
2023-04-28T00:31:24.456Z,100810.28
2023-04-28T00:33:51.136Z,100811.03
2023-04-28T00:36:17.811Z,100819.03
2023-04-28T00:38:44.402Z,100818.78
2023-04-28T00:41:11.667Z,100822.78
2023-04-28T00:44:07.591Z,100828.00
2023-04-28T00:46:34.645Z,100825.84
2023-04-28T00:49:01.894Z,100819.97
2023-04-28T00:51:29.244Z,100831.72
2023-04-28T00:53:57.113Z,100825.00
2023-04-28T00:56:23.767Z,100830.41
2023-04-28T00:58:50.482Z,100823.31
2023-04-28T01:01:18.122Z,100828.94
2023-04-28T01:03:45.737Z,100838.22
2023-04-28T01:06:12.949Z,100835.72
2023-04-28T01:08:39.737Z,100838.34
2023-04-28T01:11:07.208Z,100834.09
2023-04-28T01:13:33.924Z,100834.38
2023-04-28T01:16:00.980Z,100837.94
2023-04-28T01:18:28.003Z,100840.56
2023-04-28T01:20:54.597Z,100838.25
2023-04-28T01:23:21.261Z,100846.53
2023-04-28T01:25:47.853Z,100837.00
2023-04-28T01:28:14.530Z,100839.47
2023-04-28T01:30:41.277Z,100837.78
2023-04-28T01:33:08.232Z,100831.56
2023-04-28T01:35:34.977Z,100828.88
2023-04-28T01:38:02.873Z,100833.06
2023-04-28T01:40:29.584Z,100834.28
2023-04-28T01:42:56.219Z,100827.50
2023-04-28T01:45:22.799Z,100828.91
2023-04-28T01:47:49.469Z,100825.53
2023-04-28T01:50:16.125Z,100820.28
2023-04-28T01:52:42.748Z,100829.63
2023-04-28T01:55:09.660Z,100836.69
2023-04-28T01:57:36.468Z,100829.75
2023-04-28T02:00:05.105Z,100825.47
2023-04-28T02:02:31.894Z,100833.25
2023-04-28T02:04:58.704Z,100835.84
2023-04-28T02:07:25.389Z,100828.19
2023-04-28T02:09:52.043Z,100825.94
2023-04-28T02:12:18.748Z,100826.22
2023-04-28T02:14:46.132Z,100832.97
2023-04-28T02:17:13.063Z,100833.81
2023-04-28T02:19:39.731Z,100837.72
2023-04-28T02:22:07.259Z,100849.22
2023-04-28T02:24:37.530Z,100846.09
2023-04-28T02:27:05.434Z,100843.75
2023-04-28T02:29:32.183Z,100846.97
2023-04-28T02:31:58.960Z,100850.25
2023-04-28T02:34:25.548Z,100856.41
2023-04-28T02:36:52.188Z,100842.38
2023-04-28T02:39:18.971Z,100852.88
2023-04-28T02:41:45.748Z,100854.88
2023-04-28T02:44:12.435Z,100850.69
2023-04-28T02:46:39.079Z,100853.06
2023-04-28T02:49:05.703Z,100849.44
2023-04-28T02:51:35.659Z,100859.09
2023-04-28T02:54:02.211Z,100864.28
2023-04-28T02:56:30.076Z,100864.81
2023-04-28T02:58:56.903Z,100859.50
2023-04-28T03:01:23.672Z,100853.88
2023-04-28T03:03:50.737Z,100859.66
2023-04-28T03:06:17.484Z,100854.81
2023-04-28T03:08:44.094Z,100857.25
2023-04-28T03:11:11.445Z,100858.91
2023-04-28T03:13:38.054Z,100852.22
2023-04-28T03:16:05.318Z,100856.06
2023-04-28T03:18:32.037Z,100856.72
2023-04-28T03:20:59.644Z,100858.59
2023-04-28T03:23:26.281Z,100864.97
2023-04-28T03:25:52.904Z,100854.56
2023-04-28T03:28:20.605Z,100854.88
2023-04-28T03:30:47.224Z,100862.03
2023-04-28T03:33:13.887Z,100859.28
2023-04-28T03:35:40.464Z,100863.88
2023-04-28T03:38:07.282Z,100865.56
2023-04-28T03:40:33.938Z,100862.78
2023-04-28T03:43:01.708Z,100861.78
2023-04-28T03:45:29.640Z,100864.28
2023-04-28T03:47:59.515Z,100863.97
2023-04-28T03:50:29.168Z,100868.56
2023-04-28T03:52:55.916Z,100862.47
2023-04-28T03:55:22.666Z,100875.22
2023-04-28T03:57:49.437Z,100868.16
2023-04-28T04:00:17.235Z,100869.56
2023-04-28T04:02:43.937Z,100880.06
2023-04-28T04:05:13.464Z,100876.16
2023-04-28T04:07:40.546Z,100880.38
2023-04-28T04:10:07.812Z,100885.41
2023-04-28T04:12:34.583Z,100889.34
2023-04-28T04:15:01.220Z,100888.13
2023-04-28T04:17:27.968Z,100881.94
2023-04-28T04:19:54.602Z,100887.16
2023-04-28T04:22:21.207Z,100881.25
2023-04-28T04:24:47.787Z,100882.78
2023-04-28T04:27:14.451Z,100885.38
2023-04-28T04:29:41.156Z,100884.81
2023-04-28T04:32:07.778Z,100887.91
2023-04-28T04:34:37.172Z,100888.28
2023-04-28T04:37:04.015Z,100889.66
2023-04-28T04:39:30.762Z,100895.88
2023-04-28T04:41:57.807Z,100885.03
2023-04-28T04:44:24.389Z,100888.19
2023-04-28T04:46:51.043Z,100886.44
2023-04-28T04:49:18.025Z,100889.78
2023-04-28T04:51:47.513Z,100885.72
2023-04-28T04:54:14.348Z,100886.44
2023-04-28T04:56:42.753Z,100887.28
2023-04-28T04:59:09.623Z,100893.44
2023-04-28T05:01:36.503Z,100893.84
2023-04-28T05:04:03.353Z,100890.75
2023-04-28T05:06:30.086Z,100898.72
2023-04-28T05:08:58.400Z,100896.91
2023-04-28T05:11:25.124Z,100895.00
2023-04-28T05:13:52.376Z,100895.06
2023-04-28T05:16:19.179Z,100906.63
2023-04-28T05:18:46.183Z,100900.91
2023-04-28T05:21:12.871Z,100899.94
2023-04-28T05:23:39.486Z,100896.06
2023-04-28T05:26:06.532Z,100885.38
2023-04-28T05:28:34.267Z,100889.84
2023-04-28T05:31:00.969Z,100893.81
2023-04-28T05:33:27.597Z,100884.25
2023-04-28T05:35:54.631Z,100894.59
2023-04-28T05:38:23.313Z,100888.84
2023-04-28T05:40:51.448Z,100891.00
2023-04-28T05:43:18.190Z,100890.00
2023-04-28T05:45:47.199Z,100889.25
2023-04-28T05:48:13.912Z,100885.44
2023-04-28T05:50:40.612Z,100876.47
2023-04-28T05:53:07.668Z,100886.63
2023-04-28T05:55:36.402Z,100881.81
2023-04-28T05:58:04.043Z,100889.47
2023-04-28T06:00:30.886Z,100890.88
2023-04-28T06:02:57.627Z,100891.56
2023-04-28T06:05:24.629Z,100890.31
2023-04-28T06:07:53.040Z,100894.16
2023-04-28T06:10:22.879Z,100897.84
2023-04-28T06:12:49.641Z,100902.66
2023-04-28T06:15:16.554Z,100901.63
2023-04-28T06:17:43.295Z,100913.69
2023-04-28T06:20:12.553Z,100901.59
2023-04-28T06:22:39.426Z,100912.31
2023-04-28T06:25:08.524Z,100902.19
2023-04-28T06:27:35.231Z,100905.88
2023-04-28T06:30:01.882Z,100893.56
2023-04-28T06:32:28.724Z,100899.06
2023-04-28T06:34:57.189Z,100893.84
2023-04-28T06:37:25.091Z,100895.09
2023-04-28T06:39:51.767Z,100896.03
2023-04-28T06:42:20.400Z,100896.47
2023-04-28T06:44:46.985Z,100901.16
2023-04-28T06:47:14.425Z,100904.06
2023-04-28T06:49:45.596Z,100910.16
2023-04-28T06:52:14.259Z,100905.25
2023-04-28T06:54:40.892Z,100896.88
2023-04-28T06:57:07.492Z,100900.25
2023-04-28T06:59:35.695Z,100901.31
2023-04-28T07:02:02.473Z,100901.47
2023-04-28T07:04:29.382Z,100893.03
2023-04-28T07:06:56.431Z,100898.34
2023-04-28T07:09:24.580Z,100898.88
2023-04-28T07:11:51.253Z,100890.22
2023-04-28T07:14:18.642Z,100889.22
2023-04-28T07:16:45.662Z,100885.59
2023-04-28T07:19:12.332Z,100896.38
2023-04-28T07:21:39.253Z,100888.72
2023-04-28T07:24:06.416Z,100879.91
2023-04-28T07:26:33.940Z,100883.41
2023-04-28T07:29:02.124Z,100881.41
2023-04-28T07:31:29.225Z,100882.22
2023-04-28T07:33:55.889Z,100879.69
2023-04-28T07:36:23.016Z,100887.66
2023-04-28T07:38:49.836Z,100885.63
2023-04-28T07:41:17.473Z,100892.13
2023-04-28T07:43:44.214Z,100892.59
2023-04-28T07:46:12.636Z,100898.50
2023-04-28T07:48:39.497Z,100890.13
2023-04-28T07:51:06.298Z,100887.16
2023-04-28T07:53:33.372Z,100888.72
2023-04-28T07:56:00.022Z,100883.69
2023-04-28T07:58:26.749Z,100882.69
2023-04-28T08:00:53.353Z,100875.47
2023-04-28T08:03:20.343Z,100879.13
2023-04-28T08:05:47.244Z,100872.88
2023-04-28T08:08:13.887Z,100876.63
2023-04-28T08:10:42.308Z,100877.22
2023-04-28T08:13:09.127Z,100880.66
2023-04-28T08:15:35.874Z,100872.63
2023-04-28T08:18:06.445Z,100874.41
2023-04-28T08:20:33.118Z,100868.78
2023-04-28T08:23:00.080Z,100868.59
2023-04-28T08:25:26.808Z,100867.34
2023-04-28T08:27:57.089Z,100860.84
2023-04-28T08:30:24.397Z,100840.88
2023-04-28T08:32:51.698Z,100841.72
2023-04-28T08:35:19.310Z,100848.59
2023-04-28T08:37:46.418Z,100844.66
2023-04-28T08:40:13.247Z,100844.19
2023-04-28T08:42:42.491Z,100847.31
2023-04-28T08:45:15.433Z,100846.25
2023-04-28T08:47:46.108Z,100843.25
2023-04-28T08:50:13.973Z,100840.03
2023-04-28T08:52:42.874Z,100840.91
2023-04-28T08:55:11.790Z,100835.28
2023-04-28T08:57:43.795Z,100833.16
2023-04-28T09:00:11.699Z,100837.56
2023-04-28T09:02:42.437Z,100834.06
2023-04-28T09:05:14.169Z,100824.94
2023-04-28T09:07:41.394Z,100831.38
2023-04-28T09:10:24.132Z,100839.13
2023-04-28T09:12:55.858Z,100829.56
2023-04-28T09:15:46.085Z,100824.13
2023-04-28T09:18:15.602Z,100820.63
2023-04-28T09:20:42.298Z,100814.34
2023-04-28T09:23:21.073Z,100800.50
2023-04-28T09:26:02.065Z,100805.06
2023-04-28T09:28:30.477Z,100799.84
2023-04-28T09:30:57.444Z,100800.81
2023-04-28T09:33:24.262Z,100801.22
2023-04-28T09:35:51.673Z,100790.66
2023-04-28T09:38:21.786Z,100781.03
2023-04-28T09:41:02.321Z,100776.31
2023-04-28T09:43:36.048Z,100780.47
2023-04-28T09:46:04.982Z,100777.81
2023-04-28T09:48:40.893Z,100777.16
2023-04-28T09:51:09.863Z,100773.69
2023-04-28T09:53:37.443Z,100777.53
2023-04-28T09:56:07.279Z,100774.72
2023-04-28T09:58:35.312Z,100783.44
2023-04-28T10:01:02.271Z,100782.06
2023-04-28T10:03:30.607Z,100777.53
2023-04-28T10:05:58.808Z,100782.09
2023-04-28T10:08:27.648Z,100776.81
2023-04-28T10:10:54.824Z,100778.22
2023-04-28T10:13:22.948Z,100775.63
2023-04-28T10:15:51.274Z,100774.69
2023-04-28T10:18:18.607Z,100771.97
2023-04-28T10:20:49.097Z,100770.59
2023-04-28T10:23:34.498Z,100763.47
2023-04-28T10:26:03.361Z,100761.88
2023-04-28T10:28:30.160Z,100752.47
2023-04-28T10:31:17.729Z,100762.94
2023-04-28T10:33:45.216Z,100739.91
2023-04-28T10:36:12.058Z,100743.22
2023-04-28T10:39:12.385Z,100740.91
2023-04-28T10:41:39.129Z,100748.28
2023-04-28T10:44:28.932Z,100732.50
2023-04-28T10:47:08.148Z,100728.34
2023-04-28T10:49:59.626Z,100729.81
2023-04-28T10:52:38.746Z,100727.78
2023-04-28T10:55:29.157Z,100718.31
2023-04-28T10:58:20.226Z,100725.34
2023-04-28T11:00:53.441Z,100727.84
2023-04-28T11:04:04.881Z,100712.59
2023-04-28T11:06:40.259Z,100707.19
2023-04-28T11:09:14.094Z,100691.50
2023-04-28T11:11:59.230Z,100704.03
2023-04-28T11:14:25.910Z,100690.72
2023-04-28T11:17:01.368Z,100685.69
2023-04-28T11:19:33.354Z,100691.25
2023-04-28T11:22:13.576Z,100683.00
2023-04-28T11:24:40.812Z,100676.00
2023-04-28T11:27:07.747Z,100685.88
2023-04-28T11:29:39.865Z,100679.91
2023-04-28T11:32:10.946Z,100680.72
2023-04-28T11:34:39.279Z,100679.66
2023-04-28T11:37:08.374Z,100675.09
2023-04-28T11:39:35.441Z,100668.97
2023-04-28T11:42:10.172Z,100669.41
2023-04-28T11:44:37.062Z,100666.06
2023-04-28T11:47:05.221Z,100665.69
2023-04-28T11:49:52.653Z,100660.25
2023-04-28T11:52:20.710Z,100649.19
2023-04-28T11:54:59.257Z,100650.22
2023-04-28T11:57:26.820Z,100647.09
2023-04-28T11:59:53.683Z,100650.41
2023-04-28T12:02:31.420Z,100634.75
2023-04-28T12:05:06.880Z,100635.50
2023-04-28T12:07:43.312Z,100633.47
2023-04-28T12:10:18.979Z,100632.22
2023-04-28T12:15:18.161Z,100642.56
2023-04-28T12:17:46.784Z,100628.13
2023-04-28T12:20:35.278Z,100624.19
2023-04-28T12:23:02.845Z,100627.69
2023-04-28T12:25:29.638Z,100618.81
2023-04-28T12:28:07.898Z,100621.91
2023-04-28T12:30:46.950Z,100615.75
2023-04-28T12:33:25.018Z,100613.28
2023-04-28T12:35:51.801Z,100612.25
2023-04-28T12:38:18.943Z,100621.50
2023-04-28T12:40:46.576Z,100608.13
2023-04-28T12:43:13.580Z,100605.88
2023-04-28T12:45:41.439Z,100593.91
2023-04-28T12:48:08.396Z,100591.81
2023-04-28T12:50:35.006Z,100596.56
2023-04-28T12:53:01.719Z,100596.72
2023-04-28T12:55:31.220Z,100585.72
2023-04-28T12:57:57.829Z,100579.81
2023-04-28T13:00:28.781Z,100571.94
2023-04-28T13:02:55.917Z,100571.13
2023-04-28T13:05:23.420Z,100569.06
2023-04-28T13:07:50.866Z,100551.44
2023-04-28T13:10:19.042Z,100550.47
2023-04-28T13:12:45.645Z,100539.09
2023-04-28T13:15:12.374Z,100542.56
2023-04-28T13:17:39.891Z,100525.84
2023-04-28T13:20:07.433Z,100530.25
2023-04-28T13:22:34.037Z,100519.31
2023-04-28T13:25:00.707Z,100526.97
2023-04-28T13:27:32.421Z,100515.81
2023-04-28T13:29:59.378Z,100512.13
2023-04-28T13:32:26.740Z,100511.09
2023-04-28T13:34:53.356Z,100502.34
2023-04-28T13:37:19.931Z,100504.91
2023-04-28T13:39:46.730Z,100495.59
2023-04-28T13:42:13.398Z,100495.00
2023-04-28T13:44:40.054Z,100484.38
2023-04-28T13:47:09.289Z,100486.41
2023-04-28T13:49:37.473Z,100498.97
2023-04-28T13:52:04.083Z,100488.97
2023-04-28T13:54:31.330Z,100482.00
2023-04-28T13:56:58.064Z,100490.88
2023-04-28T13:59:24.770Z,100485.53
2023-04-28T14:01:52.293Z,100479.91
2023-04-28T14:04:19.072Z,100482.41
2023-04-28T14:06:46.044Z,100472.28
2023-04-28T14:09:13.094Z,100471.69
2023-04-28T14:11:39.743Z,100463.16
2023-04-28T14:14:07.772Z,100470.03
2023-04-28T14:16:34.528Z,100465.31
2023-04-28T14:19:01.763Z,100470.09
2023-04-28T14:21:28.547Z,100459.09
2023-04-28T14:23:55.215Z,100457.03
2023-04-28T14:26:23.866Z,100455.44
2023-04-28T14:28:50.699Z,100454.97
2023-04-28T14:31:18.132Z,100459.94
2023-04-28T14:33:44.796Z,100458.19
2023-04-28T14:36:11.644Z,100460.03
2023-04-28T14:38:40.277Z,100455.03
2023-04-28T14:41:07.027Z,100451.41
2023-04-28T14:43:34.070Z,100452.91
2023-04-28T14:46:03.269Z,100461.47
2023-04-28T14:48:33.109Z,100447.34
2023-04-28T14:50:59.753Z,100461.78
2023-04-28T14:53:26.434Z,100457.38
2023-04-28T14:55:54.585Z,100449.84
2023-04-28T14:58:22.653Z,100451.22
2023-04-28T15:00:49.294Z,100448.78
2023-04-28T15:03:17.197Z,100450.94
2023-04-28T15:05:46.503Z,100446.41
2023-04-28T15:08:13.290Z,100439.84
2023-04-28T15:10:40.573Z,100435.06
2023-04-28T15:13:07.716Z,100431.88
2023-04-28T15:15:35.015Z,100429.53
2023-04-28T15:18:02.079Z,100428.34
2023-04-28T15:20:30.653Z,100418.97
2023-04-28T15:22:58.105Z,100424.84
2023-04-28T15:25:25.516Z,100422.22
2023-04-28T15:27:52.157Z,100421.56
2023-04-28T15:30:19.658Z,100419.81
2023-04-28T15:32:46.727Z,100421.66
2023-04-28T15:35:13.346Z,100424.28
2023-04-28T15:37:52.216Z,100423.66
2023-04-28T15:40:20.077Z,100418.13
2023-04-28T15:42:52.954Z,100408.06
2023-04-28T15:45:21.476Z,100408.66
2023-04-28T15:47:50.435Z,100401.69
2023-04-28T15:50:19.534Z,100393.03
2023-04-28T15:52:47.352Z,100385.28
2023-04-28T15:55:15.420Z,100394.78
2023-04-28T15:57:43.140Z,100385.94
2023-04-28T16:00:12.055Z,100383.66
2023-04-28T16:02:39.168Z,100387.81
2023-04-28T16:05:06.581Z,100372.94
2023-04-28T16:07:41.168Z,100379.75
2023-04-28T16:10:10.211Z,100379.53
2023-04-28T16:12:37.698Z,100372.53
2023-04-28T16:15:05.448Z,100377.09
2023-04-28T16:17:34.329Z,100378.31
2023-04-28T16:20:00.965Z,100376.91
2023-04-28T16:22:28.302Z,100372.78
2023-04-28T16:24:56.724Z,100368.81
2023-04-28T16:27:23.638Z,100378.66
2023-04-28T16:29:50.246Z,100369.19
2023-04-28T16:32:16.943Z,100364.28
2023-04-28T16:34:43.900Z,100359.28
2023-04-28T16:37:11.683Z,100359.25
2023-04-28T16:39:38.530Z,100357.59
2023-04-28T16:42:07.111Z,100349.34
2023-04-28T16:44:37.375Z,100355.88
2023-04-28T16:47:04.639Z,100355.81
2023-04-28T16:49:31.292Z,100356.22
2023-04-28T16:51:59.824Z,100349.78
2023-04-28T16:54:28.352Z,100348.47
2023-04-28T16:56:55.625Z,100350.31
2023-04-28T16:59:22.460Z,100349.00
2023-04-28T17:01:49.346Z,100336.00
2023-04-28T17:04:16.857Z,100338.63
2023-04-28T17:06:44.093Z,100332.44
2023-04-28T17:09:11.356Z,100342.44
2023-04-28T17:11:37.948Z,100344.78
2023-04-28T17:14:05.169Z,100342.91
2023-04-28T17:16:32.959Z,100329.88
2023-04-28T17:19:01.315Z,100332.06
2023-04-28T17:21:29.254Z,100330.34
2023-04-28T17:23:57.977Z,100321.63
2023-04-28T17:26:25.740Z,100324.88
2023-04-28T17:28:52.835Z,100319.03
2023-04-28T17:31:19.696Z,100314.09
2023-04-28T17:33:46.553Z,100314.66
2023-04-28T17:36:13.199Z,100309.84
2023-04-28T17:38:39.893Z,100310.78
2023-04-28T17:41:06.684Z,100306.59
2023-04-28T17:43:33.868Z,100306.16
2023-04-28T17:46:00.558Z,100302.75
2023-04-28T17:48:27.212Z,100299.84
2023-04-28T17:50:54.366Z,100303.44
2023-04-28T17:53:21.739Z,100298.69
2023-04-28T17:55:48.415Z,100293.47
2023-04-28T17:58:15.897Z,100287.03
2023-04-28T18:00:43.047Z,100296.97
2023-04-28T18:03:09.826Z,100292.00
2023-04-28T18:05:36.751Z,100292.84
2023-04-28T18:08:06.270Z,100298.72
2023-04-28T18:10:35.366Z,100301.13
2023-04-28T18:13:04.527Z,100298.44
2023-04-28T18:15:31.115Z,100295.78
2023-04-28T18:17:57.979Z,100296.84
2023-04-28T18:20:24.852Z,100295.78
2023-04-28T18:22:52.159Z,100293.56
2023-04-28T18:25:19.070Z,100297.97
2023-04-28T18:27:45.903Z,100298.59
2023-04-28T18:30:12.783Z,100297.25
2023-04-28T18:32:39.402Z,100293.00
2023-04-28T18:35:06.186Z,100294.84
2023-04-28T18:37:32.948Z,100300.53
2023-04-28T18:39:59.611Z,100300.91
2023-04-28T18:42:27.458Z,100297.78
2023-04-28T18:44:58.409Z,100306.94
2023-04-28T18:47:25.918Z,100298.31
2023-04-28T18:49:52.872Z,100307.31
2023-04-28T18:52:19.533Z,100307.78
2023-04-28T18:54:46.387Z,100301.44
2023-04-28T18:57:13.084Z,100307.88
2023-04-28T18:59:39.974Z,100315.91
2023-04-28T19:02:06.966Z,100318.22
2023-04-28T19:04:34.967Z,100319.13
2023-04-28T19:07:01.827Z,100312.16
2023-04-28T19:09:28.432Z,100319.50
2023-04-28T19:11:55.728Z,100325.63
2023-04-28T19:14:22.341Z,100318.84
2023-04-28T19:16:48.949Z,100317.81
2023-04-28T19:19:16.642Z,100319.84
2023-04-28T19:21:44.512Z,100327.63
2023-04-28T19:24:11.420Z,100323.88
2023-04-28T19:26:38.488Z,100324.88
2023-04-28T19:29:05.187Z,100317.72
2023-04-28T19:31:31.875Z,100318.56
2023-04-28T19:33:58.633Z,100312.78
2023-04-28T19:36:25.325Z,100315.63
2023-04-28T19:38:52.068Z,100306.34
2023-04-28T19:41:21.303Z,100314.41
2023-04-28T19:43:47.944Z,100303.97
2023-04-28T19:46:15.264Z,100310.28
2023-04-28T19:48:42.633Z,100306.16
2023-04-28T19:51:09.313Z,100299.34
2023-04-28T19:53:39.418Z,100301.84
2023-04-28T19:56:10.233Z,100302.00
2023-04-28T19:58:37.757Z,100294.94
2023-04-28T20:01:07.375Z,100310.06
2023-04-28T20:03:34.966Z,100312.56
2023-04-28T20:06:01.714Z,100305.19
2023-04-28T20:08:28.568Z,100300.03
2023-04-28T20:10:55.184Z,100309.19
2023-04-28T20:13:21.874Z,100312.03
2023-04-28T20:15:48.571Z,100315.03
2023-04-28T20:18:15.196Z,100307.06
2023-04-28T20:20:43.676Z,100311.75
2023-04-28T20:23:11.107Z,100308.44
2023-04-28T20:25:37.889Z,100309.63
2023-04-28T20:28:05.411Z,100310.78
2023-04-28T20:30:32.131Z,100315.09
2023-04-28T20:32:58.892Z,100307.47
2023-04-28T20:35:25.537Z,100303.84
2023-04-28T20:37:55.460Z,100305.84
2023-04-28T20:40:24.972Z,100293.06
2023-04-28T20:42:51.641Z,100295.91
2023-04-28T20:45:19.215Z,100292.72
2023-04-28T20:47:45.859Z,100298.03
2023-04-28T20:50:12.904Z,100278.59
2023-04-28T20:52:39.731Z,100266.06
2023-04-28T20:55:06.707Z,100246.28
2023-04-28T20:57:33.304Z,100233.00
2023-04-28T20:59:59.912Z,100233.63
2023-04-28T21:02:27.418Z,100240.78
2023-04-28T21:04:54.202Z,100245.44
2023-04-28T21:07:24.498Z,100259.09
2023-04-28T21:09:54.126Z,100276.69
2023-04-28T21:12:20.876Z,100276.19
2023-04-28T21:14:51.221Z,100284.06
2023-04-28T21:17:17.808Z,100276.31
2023-04-28T21:19:44.473Z,100275.81
2023-04-28T21:22:12.233Z,100262.91
2023-04-28T21:24:39.036Z,100258.91
2023-04-28T21:27:06.421Z,100248.97
2023-04-28T21:29:34.571Z,100241.13
2023-04-28T21:32:02.685Z,100232.31
2023-04-28T21:34:29.451Z,100226.56
2023-04-28T21:36:57.954Z,100229.22
2023-04-28T21:39:24.694Z,100218.75
2023-04-28T21:41:51.377Z,100215.25
2023-04-28T21:44:18.203Z,100223.59
2023-04-28T21:46:44.796Z,100228.53
2023-04-28T21:49:12.142Z,100217.75
2023-04-28T21:51:42.181Z,100212.44
2023-04-28T21:54:09.465Z,100203.47
2023-04-28T21:56:36.064Z,100199.22
2023-04-28T21:59:03.261Z,100201.25
2023-04-28T22:01:30.058Z,100206.41
2023-04-28T22:03:58.286Z,100212.22
2023-04-28T22:06:25.361Z,100217.50
2023-04-28T22:08:54.149Z,100221.16
2023-04-28T22:11:20.735Z,100215.50
2023-04-28T22:13:47.414Z,100209.84
2023-04-28T22:16:14.196Z,100206.19
2023-04-28T22:18:40.891Z,100212.31
2023-04-28T22:21:07.996Z,100222.44
2023-04-28T22:23:35.028Z,100226.25
2023-04-28T22:26:01.715Z,100230.53
2023-04-28T22:28:28.554Z,100235.03
2023-04-28T22:30:55.902Z,100231.56
2023-04-28T22:33:22.639Z,100217.13
2023-04-28T22:35:49.313Z,100208.97
2023-04-28T22:38:16.831Z,100215.09
2023-04-28T22:40:45.180Z,100202.16
2023-04-28T22:43:11.873Z,100196.22
2023-04-28T22:45:38.512Z,100191.41
2023-04-28T22:48:05.508Z,100193.91
2023-04-28T22:50:32.369Z,100193.63
2023-04-28T22:52:59.618Z,100196.28
2023-04-28T22:55:26.210Z,100198.94
2023-04-28T22:57:52.849Z,100194.97
2023-04-28T23:00:20.403Z,100193.34
2023-04-28T23:02:47.279Z,100196.13
2023-04-28T23:05:14.356Z,100194.03
2023-04-28T23:07:41.085Z,100197.50
2023-04-28T23:10:08.223Z,100194.84
2023-04-28T23:12:34.814Z,100190.09
2023-04-28T23:15:01.530Z,100193.38
2023-04-28T23:17:28.823Z,100186.25
2023-04-28T23:19:55.563Z,100183.59
2023-04-28T23:22:22.273Z,100178.44
2023-04-28T23:24:48.912Z,100174.50
2023-04-28T23:27:15.754Z,100175.50
2023-04-28T23:29:43.054Z,100179.47
2023-04-28T23:32:10.290Z,100178.00
2023-04-28T23:34:38.288Z,100173.50
2023-04-28T23:37:05.070Z,100175.84
2023-04-28T23:39:32.118Z,100177.22
2023-04-28T23:41:59.044Z,100174.94
2023-04-28T23:44:25.745Z,100173.72
2023-04-28T23:46:53.341Z,100171.06
2023-04-28T23:49:20.983Z,100173.22
2023-04-28T23:51:47.753Z,100174.09
2023-04-28T23:54:14.373Z,100175.44
2023-04-28T23:56:40.944Z,100175.78
2023-04-28T23:59:08.421Z,100183.41
